createdAt,value
2019-04-16T00:00:42.489Z,9.53
2019-04-16T00:07:03.229Z,6.57
2019-04-16T00:13:09.644Z,9.50
2019-04-16T00:19:14.206Z,7.57
2019-04-16T00:25:18.912Z,7.00
2019-04-16T00:31:23.562Z,8.30
2019-04-16T00:37:28.149Z,7.80
2019-04-16T00:43:32.776Z,8.03
2019-04-16T00:49:37.992Z,12.67
2019-04-16T00:55:45.019Z,7.93
2019-04-16T01:01:49.047Z,7.43
2019-04-16T01:07:53.584Z,6.27
2019-04-16T01:13:58.138Z,8.00
2019-04-16T01:20:02.817Z,6.70
2019-04-16T01:26:07.372Z,8.30
2019-04-16T01:32:19.652Z,7.10
2019-04-16T01:38:34.880Z,10.70
2019-04-16T01:44:39.506Z,7.33
2019-04-16T01:50:44.463Z,8.37
2019-04-16T01:56:49.127Z,7.57
2019-04-16T02:02:53.691Z,8.17
2019-04-16T02:09:01.842Z,9.30
2019-04-16T02:15:07.191Z,9.37
2019-04-16T02:21:11.770Z,16.40
2019-04-16T02:27:16.371Z,9.27
2019-04-16T02:33:20.956Z,10.67
2019-04-16T02:39:46.251Z,11.73
2019-04-16T02:45:31.849Z,8.70
2019-04-16T02:51:44.304Z,14.73
2019-04-16T02:58:00.022Z,12.37
2019-04-16T03:04:10.487Z,12.13
2019-04-16T03:10:15.118Z,10.87
2019-04-16T03:16:27.398Z,12.30
2019-04-16T03:22:33.381Z,13.27
2019-04-16T03:28:38.242Z,12.20
2019-04-16T03:34:42.867Z,9.33
2019-04-16T03:40:47.473Z,10.33
2019-04-16T03:46:52.119Z,12.73
2019-04-16T03:52:56.687Z,10.77
2019-04-16T03:59:01.254Z,10.53
2019-04-16T04:05:07.505Z,10.63
2019-04-16T04:11:12.569Z,10.00
2019-04-16T04:17:17.185Z,8.73
2019-04-16T04:23:21.730Z,12.90
2019-04-16T04:29:27.932Z,11.80
2019-04-16T04:35:32.476Z,11.80
2019-04-16T04:41:37.023Z,10.67
2019-04-16T04:47:41.561Z,12.33
2019-04-16T04:53:47.476Z,16.33
2019-04-16T04:59:52.488Z,11.00
2019-04-16T05:06:01.242Z,8.27
2019-04-16T05:12:07.995Z,12.10
2019-04-16T05:18:12.429Z,13.90
2019-04-16T05:24:16.990Z,14.47
2019-04-16T05:30:22.134Z,14.90
2019-04-16T05:36:26.851Z,10.20
2019-04-16T05:42:31.438Z,11.20
2019-04-16T05:48:36.003Z,18.80
2019-04-16T05:54:51.113Z,12.97
2019-04-16T06:01:06.361Z,49.20
2019-04-16T06:07:10.907Z,126.57
2019-04-16T06:13:27.029Z,80.57
2019-04-16T06:19:37.075Z,18.50
2019-04-16T06:25:51.836Z,18.40
2019-04-16T06:32:00.488Z,18.90
2019-04-16T06:38:15.667Z,13.37
2019-04-16T06:44:24.332Z,12.23
2019-04-16T06:50:39.543Z,12.80
2019-04-16T06:56:50.309Z,16.10
2019-04-16T07:03:02.607Z,15.43
2019-04-16T07:09:26.291Z,10.90
2019-04-16T07:15:30.735Z,11.10
2019-04-16T07:21:37.466Z,13.83
2019-04-16T07:27:43.318Z,10.83
2019-04-16T07:34:05.902Z,14.03
2019-04-16T07:40:28.526Z,11.37
2019-04-16T07:46:44.127Z,12.47
2019-04-16T07:52:50.160Z,16.40
2019-04-16T07:59:00.186Z,10.53
2019-04-16T08:05:01.107Z,11.83
2019-04-16T08:11:05.800Z,10.40
2019-04-16T08:17:10.505Z,10.70
2019-04-16T08:23:25.688Z,11.33
2019-04-16T08:29:30.824Z,11.80
2019-04-16T08:35:35.407Z,12.63
2019-04-16T08:41:39.972Z,17.27
2019-04-16T08:47:45.976Z,14.20
2019-04-16T08:53:50.774Z,11.87
2019-04-16T08:59:55.537Z,11.47
2019-04-16T09:06:03.592Z,12.57
2019-04-16T09:12:09.447Z,18.97
2019-04-16T09:18:18.705Z,13.50
2019-04-16T09:24:31.111Z,15.10
2019-04-16T09:30:39.753Z,15.43
2019-04-16T09:36:49.847Z,17.60
2019-04-16T09:42:54.483Z,13.10
2019-04-16T09:48:59.120Z,13.70
2019-04-16T09:55:04.872Z,11.70
2019-04-16T10:01:12.657Z,17.53
2019-04-16T10:07:18.818Z,15.77
2019-04-16T10:13:31.167Z,15.73
2019-04-16T10:19:29.742Z,16.17
2019-04-16T10:25:34.629Z,17.13
2019-04-16T10:31:39.247Z,15.90
2019-04-16T10:37:43.882Z,19.43
2019-04-16T10:44:05.946Z,13.30
2019-04-16T10:50:12.139Z,14.43
2019-04-16T10:56:34.498Z,15.27
2019-04-16T11:02:40.784Z,16.03
2019-04-16T11:08:45.582Z,15.23
2019-04-16T11:14:50.164Z,18.00
2019-04-16T11:20:54.882Z,20.70
2019-04-16T11:26:59.435Z,18.40
2019-04-16T11:33:04.282Z,16.23
2019-04-16T11:39:10.729Z,20.43
2019-04-16T11:45:15.810Z,14.70
2019-04-16T11:51:20.395Z,16.23
2019-04-16T11:57:29.351Z,20.00
2019-04-16T12:03:40.020Z,18.97
2019-04-16T12:10:02.468Z,19.93
2019-04-16T12:16:07.004Z,14.53
2019-04-16T12:22:13.288Z,15.90
2019-04-16T12:28:23.147Z,14.77
2019-04-16T12:34:29.421Z,13.83
2019-04-16T12:40:49.421Z,14.50
2019-04-16T12:46:58.585Z,14.00
2019-04-16T12:53:17.115Z,13.10
2019-04-16T12:59:23.442Z,16.30
2019-04-16T13:05:32.224Z,14.90
2019-04-16T13:11:41.378Z,14.13
2019-04-16T13:17:50.939Z,18.10
2019-04-16T13:23:56.611Z,16.50
2019-04-16T13:30:02.351Z,15.40
2019-04-16T13:36:07.639Z,17.13
2019-04-16T13:42:12.212Z,15.00
2019-04-16T13:48:21.268Z,14.77
2019-04-16T13:54:28.119Z,17.00
2019-04-16T14:00:44.031Z,16.30
2019-04-16T14:06:48.583Z,16.87
2019-04-16T14:12:53.140Z,25.10
2019-04-16T14:18:58.723Z,18.33
2019-04-16T14:25:04.765Z,18.10
2019-04-16T14:31:09.411Z,16.77
2019-04-16T14:37:14.123Z,20.73
2019-04-16T14:43:20.365Z,14.40
2019-04-16T14:49:24.977Z,17.10
2019-04-16T14:55:34.163Z,15.40
2019-04-16T15:02:03.661Z,15.33
2019-04-16T15:08:15.659Z,21.13
2019-04-16T15:14:23.441Z,17.40
2019-04-16T15:20:36.181Z,16.73
2019-04-16T15:26:43.486Z,21.13
2019-04-16T15:33:07.195Z,19.53
2019-04-16T15:39:16.486Z,16.13
2019-04-16T15:45:25.637Z,18.80
2019-04-16T15:51:39.844Z,18.53
2019-04-16T15:58:04.548Z,15.37
2019-04-16T16:04:10.440Z,20.67
2019-04-16T16:10:19.704Z,20.40
2019-04-16T16:16:24.268Z,27.23
2019-04-16T16:22:28.848Z,18.13
2019-04-16T16:28:33.420Z,20.13
2019-04-16T16:34:38.064Z,21.73
2019-04-16T16:40:42.620Z,20.17
2019-04-16T16:46:57.176Z,18.00
2019-04-16T16:53:00.308Z,21.80
2019-04-16T16:59:06.544Z,19.00
2019-04-16T17:05:12.802Z,19.97
2019-04-16T17:11:17.363Z,20.67
2019-04-16T17:17:21.985Z,20.70
2019-04-16T17:23:26.551Z,18.60
2019-04-16T17:29:31.102Z,21.40
2019-04-16T17:35:35.871Z,21.43
2019-04-16T17:41:45.138Z,17.00
2019-04-16T17:48:06.676Z,23.33
2019-04-16T17:54:23.063Z,19.93
2019-04-16T18:00:37.730Z,21.43
2019-04-16T18:06:46.204Z,20.53
2019-04-16T18:13:06.828Z,26.23
2019-04-16T18:19:15.107Z,18.63
2019-04-16T18:25:28.423Z,18.53
2019-04-16T18:31:56.063Z,18.23
2019-04-16T18:38:00.678Z,19.70
2019-04-16T18:44:13.062Z,18.90
2019-04-16T18:50:22.145Z,16.27
2019-04-16T18:56:27.263Z,21.73
2019-04-16T19:02:31.900Z,17.40
2019-04-16T19:08:41.861Z,18.90
2019-04-16T19:14:42.891Z,17.53
2019-04-16T19:20:51.403Z,17.47
2019-04-16T19:26:53.790Z,19.33
2019-04-16T19:33:00.767Z,14.83
2019-04-16T19:39:07.123Z,14.97
2019-04-16T19:45:12.859Z,16.33
2019-04-16T19:51:19.669Z,19.47
2019-04-16T19:57:23.790Z,14.50
2019-04-16T20:03:30.449Z,20.00
2019-04-16T20:09:34.651Z,18.03
2019-04-16T20:15:43.141Z,17.30
2019-04-16T20:21:45.510Z,14.30
2019-04-16T20:27:50.085Z,16.60
2019-04-16T20:33:54.661Z,23.00
2019-04-16T20:39:59.609Z,15.00
2019-04-16T20:46:04.165Z,17.37
2019-04-16T20:52:08.859Z,14.80
2019-04-16T20:58:14.859Z,15.40
2019-04-16T21:04:19.755Z,15.47
2019-04-16T21:10:24.321Z,16.00
2019-04-16T21:16:33.469Z,18.47
2019-04-16T21:22:35.166Z,15.50
2019-04-16T21:28:41.375Z,15.50
2019-04-16T21:34:50.336Z,15.07
2019-04-16T21:40:56.328Z,15.50
2019-04-16T21:47:01.195Z,14.07
2019-04-16T21:53:05.745Z,12.70
2019-04-16T21:59:10.306Z,20.57
2019-04-16T22:05:17.746Z,16.50
2019-04-16T22:11:21.561Z,18.17
2019-04-16T22:17:26.126Z,15.03
2019-04-16T22:23:30.664Z,13.90
2019-04-16T22:29:35.286Z,14.90
2019-04-16T22:35:39.839Z,12.07
2019-04-16T22:41:57.435Z,16.70
2019-04-16T22:48:00.952Z,13.67
2019-04-16T22:54:05.557Z,11.90
2019-04-16T23:00:13.100Z,14.37
2019-04-16T23:06:17.708Z,12.20
2019-04-16T23:12:27.192Z,11.93
2019-04-16T23:18:28.656Z,10.23
2019-04-16T23:24:33.201Z,10.73
2019-04-16T23:30:37.815Z,11.37
2019-04-16T23:36:44.617Z,11.83
2019-04-16T23:42:50.470Z,10.47
2019-04-16T23:48:55.497Z,12.60
2019-04-16T23:55:04.565Z,10.97
